Ludington, MI (49431)

10:14 AM EST on February 14, 2016 (GMT -0500)
Forest Hills | | Change Station
CLOSE
Current Station
Personal Weather Station
Location: Ludington, MI
Elevation: 636 ft
Nearby Weather Stations

Elev 636 ft 43.96 °N, 86.43 °W | Updated 22 seconds ago

Overcast
Overcast
14.9 °F
Feels Like 6 °F
N
6.3
Wind Variable Wind from SSW
Gusts 13.0 mph

Today
High -- | Low -- °F
--% Chance of Precip.
Yesterday
High -- | Low -- °F
Precip. -- in
Pressure 30.36 in
Visibility 10.0 miles
Clouds Overcast 3300 ft
Windchill 6 °F
Dew Point 5 °F
Humidity 63%
Rainfall 0.00 in
Snow Depth Not available.
7:46 AM 6:13 PM
Waxing Crescent, 42% visible
METAR KLDM 141455Z AUTO 14008KT 10SM OVC033 M10/M17 A3036 RMK AO2 T11041171
Pressure 30.36 in
Visibility 10.0 miles
Clouds Overcast 3300 ft
Windchill 6 °F
Dew Point 5 °F
Humidity 63%
Rainfall 0.00 in
Snow Depth Not available.
7:46 AM 6:13 PM
Waxing Crescent, 42% visible
METAR KLDM 141455Z AUTO 14008KT 10SM OVC033 M10/M17 A3036 RMK AO2 T11041171

10-Day Weather Forecast

Almanac

Astronomy

Feb. 14, 2016 Rise Set
Actual Time
Civil Twilight
Nautical Twilight
Astronomical Twilight
Moon
Length of Visible Light
Length of Day
Tomorrow will be .
, % of the Moon is Illuminated

Today's Extremes

State Highs State Lows

Community

WunderPhotos

Upload Photos

1,892,788 photos uploaded!

WunderBlog® & News

Nearby

Air Quality

  Air Quality AQ Index Pollutant
Not available.

Snow Depth

Station Depth Elevation

Earthquake Activity

City Distance Mag. Time & Date
Minimum magnitude displayed is 2.5.

Coastal Water Temperatures

Place Temperature

Stations

Nearby Weather Stations

Station Location Temp. Windchill Dew Point Humidity Wind Precip. Elev Updated Type
                   

Watches & Warnings

There are currently no watches in effect.